sensor_id;sensor_type;location;lat;lon;timestamp;pressure;altitude;pressure_sealevel;temperature;humidity
74163;BME280;62515;52.758;5.076;2023-02-18T00:00:25;102209.81;;;8.09;100.00
74163;BME280;62515;52.758;5.076;2023-02-18T00:02:52;102205.16;;;8.14;100.00
74163;BME280;62515;52.758;5.076;2023-02-18T00:05:19;102206.03;;;8.14;100.00
74163;BME280;62515;52.758;5.076;2023-02-18T00:07:45;102198.06;;;8.14;100.00
74163;BME280;62515;52.758;5.076;2023-02-18T00:10:14;102204.03;;;8.19;100.00
74163;BME280;62515;52.758;5.076;2023-02-18T00:12:42;102210.97;;;8.23;100.00
74163;BME280;62515;52.758;5.076;2023-02-18T00:15:09;102210.75;;;8.29;100.00
74163;BME280;62515;52.758;5.076;2023-02-18T00:17:36;102200.88;;;8.33;100.00
74163;BME280;62515;52.758;5.076;2023-02-18T00:20:04;102190.13;;;8.36;100.00
74163;BME280;62515;52.758;5.076;2023-02-18T00:22:32;102193.66;;;8.36;100.00
74163;BME280;62515;52.758;5.076;2023-02-18T00:24:58;102185.56;;;8.39;100.00
74163;BME280;62515;52.758;5.076;2023-02-18T00:27:26;102188.19;;;8.41;100.00
74163;BME280;62515;52.758;5.076;2023-02-18T00:29:53;102190.84;;;8.41;100.00
74163;BME280;62515;52.758;5.076;2023-02-18T00:32:20;102175.84;;;8.40;100.00
74163;BME280;62515;52.758;5.076;2023-02-18T00:34:48;102184.72;;;8.39;100.00
74163;BME280;62515;52.758;5.076;2023-02-18T00:37:14;102176.81;;;8.37;100.00
74163;BME280;62515;52.758;5.076;2023-02-18T00:39:41;102176.03;;;8.35;100.00
74163;BME280;62515;52.758;5.076;2023-02-18T00:42:08;102167.09;;;8.38;100.00
74163;BME280;62515;52.758;5.076;2023-02-18T00:44:36;102164.22;;;8.43;100.00
74163;BME280;62515;52.758;5.076;2023-02-18T00:47:03;102157.13;;;8.43;100.00
74163;BME280;62515;52.758;5.076;2023-02-18T00:49:30;102161.53;;;8.44;100.00
74163;BME280;62515;52.758;5.076;2023-02-18T00:51:57;102146.38;;;8.46;100.00
74163;BME280;62515;52.758;5.076;2023-02-18T00:54:24;102141.91;;;8.48;100.00
74163;BME280;62515;52.758;5.076;2023-02-18T00:56:51;102140.16;;;8.47;100.00
74163;BME280;62515;52.758;5.076;2023-02-18T00:59:18;102125.25;;;8.45;100.00
74163;BME280;62515;52.758;5.076;2023-02-18T01:01:46;102121.88;;;8.41;100.00
74163;BME280;62515;52.758;5.076;2023-02-18T01:04:13;102111.25;;;8.41;100.00
74163;BME280;62515;52.758;5.076;2023-02-18T01:06:40;102116.69;;;8.38;100.00
74163;BME280;62515;52.758;5.076;2023-02-18T01:09:07;102112.31;;;8.37;100.00
74163;BME280;62515;52.758;5.076;2023-02-18T01:11:34;102128.22;;;8.37;100.00
74163;BME280;62515;52.758;5.076;2023-02-18T01:14:01;102114.91;;;8.38;100.00
74163;BME280;62515;52.758;5.076;2023-02-18T01:16:28;102126.44;;;8.37;100.00
74163;BME280;62515;52.758;5.076;2023-02-18T01:18:56;102114.03;;;8.38;100.00
74163;BME280;62515;52.758;5.076;2023-02-18T01:21:24;102109.66;;;8.37;100.00
74163;BME280;62515;52.758;5.076;2023-02-18T01:23:51;102115.88;;;8.36;100.00
74163;BME280;62515;52.758;5.076;2023-02-18T01:26:18;102110.56;;;8.36;100.00
74163;BME280;62515;52.758;5.076;2023-02-18T01:28:45;102104.47;;;8.34;100.00
74163;BME280;62515;52.758;5.076;2023-02-18T01:31:12;102103.69;;;8.32;100.00
74163;BME280;62515;52.758;5.076;2023-02-18T01:33:40;102086.19;;;8.28;100.00
74163;BME280;62515;52.758;5.076;2023-02-18T01:36:09;102082.59;;;8.29;100.00
74163;BME280;62515;52.758;5.076;2023-02-18T01:38:37;102076.44;;;8.28;100.00
74163;BME280;62515;52.758;5.076;2023-02-18T01:41:04;102070.25;;;8.28;100.00
74163;BME280;62515;52.758;5.076;2023-02-18T01:43:32;102061.31;;;8.30;100.00
74163;BME280;62515;52.758;5.076;2023-02-18T01:46:13;102057.53;;;8.36;100.00
74163;BME280;62515;52.758;5.076;2023-02-18T01:48:47;102058.34;;;8.38;100.00
74163;BME280;62515;52.758;5.076;2023-02-18T01:51:18;102056.41;;;8.42;100.00
74163;BME280;62515;52.758;5.076;2023-02-18T01:53:53;102054.63;;;8.42;100.00
74163;BME280;62515;52.758;5.076;2023-02-18T01:56:25;102058.84;;;8.46;100.00
74163;BME280;62515;52.758;5.076;2023-02-18T01:58:54;102044.66;;;8.47;100.00
74163;BME280;62515;52.758;5.076;2023-02-18T02:01:24;102043.88;;;8.45;100.00
74163;BME280;62515;52.758;5.076;2023-02-18T02:03:51;102043.06;;;8.43;100.00
74163;BME280;62515;52.758;5.076;2023-02-18T02:06:22;102043.19;;;8.40;100.00
74163;BME280;62515;52.758;5.076;2023-02-18T02:08:50;102033.66;;;8.36;100.00
74163;BME280;62515;52.758;5.076;2023-02-18T02:11:38;102011.78;;;8.31;100.00
74163;BME280;62515;52.758;5.076;2023-02-18T02:14:21;101993.94;;;8.34;100.00
74163;BME280;62515;52.758;5.076;2023-02-18T02:16:59;101984.94;;;8.38;100.00
74163;BME280;62515;52.758;5.076;2023-02-18T02:19:54;101972.66;;;8.36;100.00
74163;BME280;62515;52.758;5.076;2023-02-18T02:22:48;101976.31;;;8.33;100.00
74163;BME280;62515;52.758;5.076;2023-02-18T02:25:37;101973.78;;;8.30;100.00
74163;BME280;62515;52.758;5.076;2023-02-18T02:31:43;101979.34;;;8.24;100.00
74163;BME280;62515;52.758;5.076;2023-02-18T02:34:48;101978.47;;;8.24;100.00
74163;BME280;62515;52.758;5.076;2023-02-18T02:37:22;101967.84;;;8.24;100.00
74163;BME280;62515;52.758;5.076;2023-02-18T02:40:01;101966.00;;;8.26;100.00
74163;BME280;62515;52.758;5.076;2023-02-18T02:42:39;101965.06;;;8.27;100.00
74163;BME280;62515;52.758;5.076;2023-02-18T02:45:16;101956.38;;;8.23;100.00
74163;BME280;62515;52.758;5.076;2023-02-18T02:47:48;101959.03;;;8.23;100.00
74163;BME280;62515;52.758;5.076;2023-02-18T02:50:23;101956.25;;;8.26;100.00
74163;BME280;62515;52.758;5.076;2023-02-18T02:52:56;101951.81;;;8.27;100.00
74163;BME280;62515;52.758;5.076;2023-02-18T02:55:24;101947.41;;;8.26;100.00
74163;BME280;62515;52.758;5.076;2023-02-18T02:57:54;101949.16;;;8.27;100.00
74163;BME280;62515;52.758;5.076;2023-02-18T03:00:37;101945.63;;;8.26;100.00
74163;BME280;62515;52.758;5.076;2023-02-18T03:03:46;101937.53;;;8.31;100.00
74163;BME280;62515;52.758;5.076;2023-02-18T03:06:38;101919.88;;;8.30;100.00
74163;BME280;62515;52.758;5.076;2023-02-18T03:09:15;101910.72;;;8.37;100.00
74163;BME280;62515;52.758;5.076;2023-02-18T03:11:59;101908.78;;;8.40;100.00
74163;BME280;62515;52.758;5.076;2023-02-18T03:14:36;101899.69;;;8.46;100.00
74163;BME280;62515;52.758;5.076;2023-02-18T03:17:13;101870.50;;;8.46;100.00
74163;BME280;62515;52.758;5.076;2023-02-18T03:19:46;101867.56;;;8.52;100.00
74163;BME280;62515;52.758;5.076;2023-02-18T03:22:19;101856.75;;;8.57;100.00
74163;BME280;62515;52.758;5.076;2023-02-18T03:24:49;101851.38;;;8.58;100.00
74163;BME280;62515;52.758;5.076;2023-02-18T03:27:20;101850.28;;;8.62;100.00
74163;BME280;62515;52.758;5.076;2023-02-18T03:29:54;101831.84;;;8.59;100.00
74163;BME280;62515;52.758;5.076;2023-02-18T03:32:23;101828.19;;;8.62;100.00
74163;BME280;62515;52.758;5.076;2023-02-18T03:34:55;101837.66;;;8.67;100.00
74163;BME280;62515;52.758;5.076;2023-02-18T03:37:24;101840.94;;;8.72;100.00
74163;BME280;62515;52.758;5.076;2023-02-18T03:39:56;101828.69;;;8.70;100.00
74163;BME280;62515;52.758;5.076;2023-02-18T03:42:26;101831.97;;;8.75;100.00
74163;BME280;62515;52.758;5.076;2023-02-18T03:44:53;101825.69;;;8.77;100.00
74163;BME280;62515;52.758;5.076;2023-02-18T03:47:22;101823.34;;;8.88;100.00
74163;BME280;62515;52.758;5.076;2023-02-18T03:49:49;101810.78;;;8.92;100.00
74163;BME280;62515;52.758;5.076;2023-02-18T03:52:16;101819.47;;;8.96;100.00
74163;BME280;62515;52.758;5.076;2023-02-18T03:54:44;101811.28;;;9.00;100.00
74163;BME280;62515;52.758;5.076;2023-02-18T03:57:11;101812.44;;;9.12;100.00
74163;BME280;62515;52.758;5.076;2023-02-18T03:59:38;101812.94;;;9.20;100.00
74163;BME280;62515;52.758;5.076;2023-02-18T04:02:04;101806.59;;;9.22;100.00
74163;BME280;62515;52.758;5.076;2023-02-18T04:04:31;101784.44;;;9.23;100.00
74163;BME280;62515;52.758;5.076;2023-02-18T04:06:58;101765.31;;;9.17;100.00
74163;BME280;62515;52.758;5.076;2023-02-18T04:09:25;101771.06;;;9.25;100.00
74163;BME280;62515;52.758;5.076;2023-02-18T04:11:53;101767.53;;;9.24;100.00
74163;BME280;62515;52.758;5.076;2023-02-18T04:14:20;101764.97;;;9.23;100.00
74163;BME280;62515;52.758;5.076;2023-02-18T04:16:46;101757.16;;;9.20;100.00
74163;BME280;62515;52.758;5.076;2023-02-18T04:19:13;101756.22;;;9.21;100.00
74163;BME280;62515;52.758;5.076;2023-02-18T04:21:41;101758.81;;;9.22;100.00
74163;BME280;62515;52.758;5.076;2023-02-18T04:24:08;101754.41;;;9.21;100.00
74163;BME280;62515;52.758;5.076;2023-02-18T04:26:35;101755.28;;;9.22;100.00
74163;BME280;62515;52.758;5.076;2023-02-18T04:29:03;101758.81;;;9.22;100.00
74163;BME280;62515;52.758;5.076;2023-02-18T04:31:29;101753.66;;;9.19;100.00
74163;BME280;62515;52.758;5.076;2023-02-18T04:33:56;101750.34;;;9.14;100.00
74163;BME280;62515;52.758;5.076;2023-02-18T04:36:23;101763.31;;;9.20;100.00
74163;BME280;62515;52.758;5.076;2023-02-18T04:38:50;101751.06;;;9.18;100.00
74163;BME280;62515;52.758;5.076;2023-02-18T04:41:17;101751.91;;;9.18;100.00
74163;BME280;62515;52.758;5.076;2023-02-18T04:43:43;101743.19;;;9.16;100.00
74163;BME280;62515;52.758;5.076;2023-02-18T04:46:12;101744.06;;;9.17;100.00
74163;BME280;62515;52.758;5.076;2023-02-18T04:48:39;101737.19;;;9.13;100.00
74163;BME280;62515;52.758;5.076;2023-02-18T04:51:06;101731.59;;;9.17;100.00
74163;BME280;62515;52.758;5.076;2023-02-18T04:53:33;101720.22;;;9.15;100.00
74163;BME280;62515;52.758;5.076;2023-02-18T04:56:00;101736.91;;;9.17;100.00
74163;BME280;62515;52.758;5.076;2023-02-18T04:58:27;101727.97;;;9.20;100.00
74163;BME280;62515;52.758;5.076;2023-02-18T05:00:57;101720.81;;;9.20;100.00
74163;BME280;62515;52.758;5.076;2023-02-18T05:03:26;101720.06;;;9.18;100.00
74163;BME280;62515;52.758;5.076;2023-02-18T05:05:52;101713.88;;;9.18;100.00
74163;BME280;62515;52.758;5.076;2023-02-18T05:08:19;101713.88;;;9.18;100.00
74163;BME280;62515;52.758;5.076;2023-02-18T05:10:46;101705.91;;;9.18;100.00
74163;BME280;62515;52.758;5.076;2023-02-18T05:13:13;101694.53;;;9.16;100.00
74163;BME280;62515;52.758;5.076;2023-02-18T05:15:40;101700.69;;;9.16;100.00
74163;BME280;62515;52.758;5.076;2023-02-18T05:18:07;101695.13;;;9.21;100.00
74163;BME280;62515;52.758;5.076;2023-02-18T05:20:35;101695.06;;;9.22;100.00
74163;BME280;62515;52.758;5.076;2023-02-18T05:23:02;101703.03;;;9.22;100.00
74163;BME280;62515;52.758;5.076;2023-02-18T05:25:29;101700.38;;;9.22;100.00
74163;BME280;62515;52.758;5.076;2023-02-18T05:27:56;101700.38;;;9.22;100.00
74163;BME280;62515;52.758;5.076;2023-02-18T05:30:23;101695.66;;;9.27;100.00
74163;BME280;62515;52.758;5.076;2023-02-18T05:32:50;101696.47;;;9.29;100.00
74163;BME280;62515;52.758;5.076;2023-02-18T05:35:17;101692.78;;;9.32;100.00
74163;BME280;62515;52.758;5.076;2023-02-18T05:37:45;101684.13;;;9.28;100.00
74163;BME280;62515;52.758;5.076;2023-02-18T05:40:12;101676.31;;;9.25;100.00
74163;BME280;62515;52.758;5.076;2023-02-18T05:42:38;101678.03;;;9.26;100.00
74163;BME280;62515;52.758;5.076;2023-02-18T05:45:06;101678.19;;;9.23;100.00
74163;BME280;62515;52.758;5.076;2023-02-18T05:47:33;101669.03;;;9.29;100.00
74163;BME280;62515;52.758;5.076;2023-02-18T05:49:59;101669.03;;;9.29;100.00
74163;BME280;62515;52.758;5.076;2023-02-18T05:52:26;101673.19;;;9.17;100.00
74163;BME280;62515;52.758;5.076;2023-02-18T05:54:55;101652.31;;;9.27;100.00
74163;BME280;62515;52.758;5.076;2023-02-18T05:57:21;101666.09;;;9.18;100.00
74163;BME280;62515;52.758;5.076;2023-02-18T05:59:48;101661.63;;;9.18;100.00
74163;BME280;62515;52.758;5.076;2023-02-18T06:02:15;101659.91;;;9.17;100.00
74163;BME280;62515;52.758;5.076;2023-02-18T06:04:42;101647.66;;;9.15;100.00
74163;BME280;62515;52.758;5.076;2023-02-18T06:07:09;101650.25;;;9.16;100.00
74163;BME280;62515;52.758;5.076;2023-02-18T06:09:35;101641.47;;;9.14;100.00
74163;BME280;62515;52.758;5.076;2023-02-18T06:12:04;101655.03;;;9.10;100.00
74163;BME280;62515;52.758;5.076;2023-02-18T06:14:31;101657.69;;;9.10;100.00
74163;BME280;62515;52.758;5.076;2023-02-18T06:16:57;101650.06;;;9.19;100.00
74163;BME280;62515;52.758;5.076;2023-02-18T06:19:24;101657.03;;;9.22;100.00
74163;BME280;62515;52.758;5.076;2023-02-18T06:21:51;101635.00;;;9.20;100.00
74163;BME280;62515;52.758;5.076;2023-02-18T06:24:18;101642.13;;;9.19;100.00
74163;BME280;62515;52.758;5.076;2023-02-18T06:26:45;101648.13;;;9.23;100.00
74163;BME280;62515;52.758;5.076;2023-02-18T06:29:13;101635.78;;;9.22;100.00
74163;BME280;62515;52.758;5.076;2023-02-18T06:31:40;101639.34;;;9.21;100.00
74163;BME280;62515;52.758;5.076;2023-02-18T06:34:07;101641.16;;;9.20;100.00
74163;BME280;62515;52.758;5.076;2023-02-18T06:36:34;101644.84;;;9.18;100.00
74163;BME280;62515;52.758;5.076;2023-02-18T06:39:02;101636.09;;;9.16;100.00
74163;BME280;62515;52.758;5.076;2023-02-18T06:41:29;101634.31;;;9.16;100.00
74163;BME280;62515;52.758;5.076;2023-02-18T06:43:55;101634.38;;;9.15;100.00
74163;BME280;62515;52.758;5.076;2023-02-18T06:46:24;101636.25;;;9.13;100.00
74163;BME280;62515;52.758;5.076;2023-02-18T06:48:50;101625.66;;;9.13;100.00
74163;BME280;62515;52.758;5.076;2023-02-18T06:51:17;101618.53;;;9.13;100.00
74163;BME280;62515;52.758;5.076;2023-02-18T06:53:44;101614.84;;;9.16;100.00
74163;BME280;62515;52.758;5.076;2023-02-18T06:56:11;101612.97;;;9.18;100.00
74163;BME280;62515;52.758;5.076;2023-02-18T06:58:38;101602.44;;;9.16;100.00
74163;BME280;62515;52.758;5.076;2023-02-18T07:01:05;101612.03;;;9.19;100.00
74163;BME280;62515;52.758;5.076;2023-02-18T07:03:34;101607.50;;;9.21;100.00
74163;BME280;62515;52.758;5.076;2023-02-18T07:06:00;101617.13;;;9.23;100.00
74163;BME280;62515;52.758;5.076;2023-02-18T07:08:27;101603.75;;;9.25;100.00
74163;BME280;62515;52.758;5.076;2023-02-18T07:10:54;101606.41;;;9.25;100.00
74163;BME280;62515;52.758;5.076;2023-02-18T07:13:21;101613.50;;;9.24;100.00
74163;BME280;62515;52.758;5.076;2023-02-18T07:15:48;101601.84;;;9.27;100.00
74163;BME280;62515;52.758;5.076;2023-02-18T07:18:14;101617.78;;;9.27;100.00
74163;BME280;62515;52.758;5.076;2023-02-18T07:20:42;101598.41;;;9.25;100.00
74163;BME280;62515;52.758;5.076;2023-02-18T07:23:09;101609.38;;;9.19;100.00
74163;BME280;62515;52.758;5.076;2023-02-18T07:25:36;101618.41;;;9.32;100.00
74163;BME280;62515;52.758;5.076;2023-02-18T07:28:03;101630.06;;;9.29;100.00
74163;BME280;62515;52.758;5.076;2023-02-18T07:30:30;101622.91;;;9.30;100.00
74163;BME280;62515;52.758;5.076;2023-02-18T07:32:57;101618.97;;;9.21;100.00
74163;BME280;62515;52.758;5.076;2023-02-18T07:35:23;101604.75;;;9.22;100.00
74163;BME280;62515;52.758;5.076;2023-02-18T07:37:52;101597.03;;;9.18;100.00
74163;BME280;62515;52.758;5.076;2023-02-18T07:40:20;101598.22;;;9.12;100.00
74163;BME280;62515;52.758;5.076;2023-02-18T07:42:47;101600.78;;;9.14;100.00
74163;BME280;62515;52.758;5.076;2023-02-18T07:45:15;101605.97;;;9.17;100.00
74163;BME280;62515;52.758;5.076;2023-02-18T07:47:41;101594.31;;;9.19;100.00
74163;BME280;62515;52.758;5.076;2023-02-18T07:50:09;101597.66;;;9.23;100.00
74163;BME280;62515;52.758;5.076;2023-02-18T07:52:36;101608.69;;;9.15;100.00
74163;BME280;62515;52.758;5.076;2023-02-18T07:55:04;101610.41;;;9.16;100.00
74163;BME280;62515;52.758;5.076;2023-02-18T07:57:31;101618.72;;;9.10;100.00
74163;BME280;62515;52.758;5.076;2023-02-18T07:59:59;101620.03;;;9.02;100.00
74163;BME280;62515;52.758;5.076;2023-02-18T08:02:26;101619.25;;;9.00;100.00
74163;BME280;62515;52.758;5.076;2023-02-18T08:04:52;101617.38;;;9.02;100.00
74163;BME280;62515;52.758;5.076;2023-02-18T08:07:20;101607.09;;;8.96;100.00
74163;BME280;62515;52.758;5.076;2023-02-18T08:09:48;101615.38;;;8.89;100.00
74163;BME280;62515;52.758;5.076;2023-02-18T08:12:16;101613.25;;;8.96;100.00
74163;BME280;62515;52.758;5.076;2023-02-18T08:14:43;101605.13;;;8.99;100.00
74163;BME280;62515;52.758;5.076;2023-02-18T08:17:10;101623.63;;;9.01;100.00
74163;BME280;62515;52.758;5.076;2023-02-18T08:19:37;101617.22;;;9.05;100.00
74163;BME280;62515;52.758;5.076;2023-02-18T08:22:04;101627.50;;;9.11;100.00
74163;BME280;62515;52.758;5.076;2023-02-18T08:24:31;101636.25;;;9.13;100.00
74163;BME280;62515;52.758;5.076;2023-02-18T08:26:58;101630.97;;;9.13;100.00
74163;BME280;62515;52.758;5.076;2023-02-18T08:29:28;101626.34;;;9.16;100.00
74163;BME280;62515;52.758;5.076;2023-02-18T08:31:55;101621.09;;;9.15;100.00
74163;BME280;62515;52.758;5.076;2023-02-18T08:34:22;101639.78;;;9.13;100.00
74163;BME280;62515;52.758;5.076;2023-02-18T08:36:48;101644.13;;;9.14;100.00
74163;BME280;62515;52.758;5.076;2023-02-18T08:39:15;101643.22;;;9.15;100.00
74163;BME280;62515;52.758;5.076;2023-02-18T08:41:42;101651.16;;;9.15;100.00
74163;BME280;62515;52.758;5.076;2023-02-18T08:44:09;101655.78;;;9.12;100.00
74163;BME280;62515;52.758;5.076;2023-02-18T08:46:37;101629.41;;;9.09;100.00
74163;BME280;62515;52.758;5.076;2023-02-18T08:49:04;101646.63;;;9.17;100.00
74163;BME280;62515;52.758;5.076;2023-02-18T08:51:31;101646.88;;;9.13;100.00
74163;BME280;62515;52.758;5.076;2023-02-18T08:53:58;101650.16;;;9.18;100.00
74163;BME280;62515;52.758;5.076;2023-02-18T08:56:25;101646.72;;;9.16;100.00
74163;BME280;62515;52.758;5.076;2023-02-18T08:58:51;101636.25;;;9.13;100.00
74163;BME280;62515;52.758;5.076;2023-02-18T09:01:18;101647.31;;;9.21;100.00
74163;BME280;62515;52.758;5.076;2023-02-18T09:03:47;101646.06;;;9.28;100.00
74163;BME280;62515;52.758;5.076;2023-02-18T09:06:14;101650.13;;;9.35;100.00
74163;BME280;62515;52.758;5.076;2023-02-18T09:08:40;101652.59;;;9.38;100.00
74163;BME280;62515;52.758;5.076;2023-02-18T09:11:07;101653.47;;;9.38;100.00
74163;BME280;62515;52.758;5.076;2023-02-18T09:13:34;101640.09;;;9.40;100.00
74163;BME280;62515;52.758;5.076;2023-02-18T09:16:03;101631.13;;;9.42;100.00
74163;BME280;62515;52.758;5.076;2023-02-18T09:18:31;101649.78;;;9.41;100.00
74163;BME280;62515;52.758;5.076;2023-02-18T09:21:00;101657.59;;;9.44;100.00
74163;BME280;62515;52.758;5.076;2023-02-18T09:23:28;101651.75;;;9.53;100.00
74163;BME280;62515;52.758;5.076;2023-02-18T09:25:56;101656.16;;;9.54;100.00
74163;BME280;62515;52.758;5.076;2023-02-18T09:28:24;101665.69;;;9.58;100.00
74163;BME280;62515;52.758;5.076;2023-02-18T09:30:51;101657.13;;;9.69;100.00
74163;BME280;62515;52.758;5.076;2023-02-18T09:33:18;101657.97;;;9.69;100.00
74163;BME280;62515;52.758;5.076;2023-02-18T09:35:45;101673.66;;;9.74;100.00
74163;BME280;62515;52.758;5.076;2023-02-18T09:38:15;101666.72;;;9.71;100.00
74163;BME280;62515;52.758;5.076;2023-02-18T09:40:44;101668.59;;;9.69;100.00
74163;BME280;62515;52.758;5.076;2023-02-18T09:43:18;101677.34;;;9.71;100.00
74163;BME280;62515;52.758;5.076;2023-02-18T09:45:48;101656.50;;;9.79;100.00
74163;BME280;62515;52.758;5.076;2023-02-18T09:48:16;101681.41;;;9.78;100.00
74163;BME280;62515;52.758;5.076;2023-02-18T09:50:47;101674.47;;;9.91;100.00
74163;BME280;62515;52.758;5.076;2023-02-18T09:53:18;101677.81;;;10.11;100.00
74163;BME280;62515;52.758;5.076;2023-02-18T09:55:48;101676.09;;;10.10;100.00
74163;BME280;62515;52.758;5.076;2023-02-18T09:58:17;101687.13;;;10.02;100.00
74163;BME280;62515;52.758;5.076;2023-02-18T10:00:47;101692.72;;;9.97;100.00
74163;BME280;62515;52.758;5.076;2023-02-18T10:03:16;101676.84;;;9.96;100.00
74163;BME280;62515;52.758;5.076;2023-02-18T10:05:52;101686.28;;;10.02;100.00
74163;BME280;62515;52.758;5.076;2023-02-18T10:08:26;101683.13;;;10.11;100.00
74163;BME280;62515;52.758;5.076;2023-02-18T10:10:54;101666.31;;;10.10;100.00
74163;BME280;62515;52.758;5.076;2023-02-18T10:13:23;101670.88;;;10.24;100.00
74163;BME280;62515;52.758;5.076;2023-02-18T10:15:51;101679.28;;;10.16;100.00
74163;BME280;62515;52.758;5.076;2023-02-18T10:18:27;101698.50;;;10.21;100.00
74163;BME280;62515;52.758;5.076;2023-02-18T10:21:04;101662.53;;;10.30;100.00
74163;BME280;62515;52.758;5.076;2023-02-18T10:23:35;101696.69;;;10.22;100.00
74163;BME280;62515;52.758;5.076;2023-02-18T10:26:04;101691.56;;;10.19;100.00
74163;BME280;62515;52.758;5.076;2023-02-18T10:28:32;101708.00;;;10.10;100.00
74163;BME280;62515;52.758;5.076;2023-02-18T10:31:04;101704.47;;;10.09;100.00
74163;BME280;62515;52.758;5.076;2023-02-18T10:33:36;101712.56;;;10.08;100.00
74163;BME280;62515;52.758;5.076;2023-02-18T10:36:17;101715.03;;;10.11;100.00
74163;BME280;62515;52.758;5.076;2023-02-18T10:38:52;101733.84;;;10.08;100.00
74163;BME280;62515;52.758;5.076;2023-02-18T10:41:28;101706.03;;;10.13;100.00
74163;BME280;62515;52.758;5.076;2023-02-18T10:44:02;101716.88;;;10.26;100.00
74163;BME280;62515;52.758;5.076;2023-02-18T10:46:41;101695.06;;;10.35;100.00
74163;BME280;62515;52.758;5.076;2023-02-18T10:52:15;101725.25;;;10.65;100.00
74163;BME280;62515;52.758;5.076;2023-02-18T10:54:58;101702.91;;;10.97;100.00
74163;BME280;62515;52.758;5.076;2023-02-18T10:57:26;101714.00;;;11.20;100.00
74163;BME280;62515;52.758;5.076;2023-02-18T10:59:58;101707.16;;;11.30;100.00
74163;BME280;62515;52.758;5.076;2023-02-18T11:02:27;101691.72;;;11.21;100.00
74163;BME280;62515;52.758;5.076;2023-02-18T11:04:56;101711.44;;;11.18;100.00
74163;BME280;62515;52.758;5.076;2023-02-18T11:07:29;101710.53;;;11.03;100.00
74163;BME280;62515;52.758;5.076;2023-02-18T11:10:00;101708.31;;;10.96;100.00
74163;BME280;62515;52.758;5.076;2023-02-18T11:12:41;101707.50;;;11.10;100.00
74163;BME280;62515;52.758;5.076;2023-02-18T11:15:17;101719.50;;;11.17;100.00
74163;BME280;62515;52.758;5.076;2023-02-18T11:17:45;101714.41;;;11.28;100.00
74163;BME280;62515;52.758;5.076;2023-02-18T11:20:27;101722.13;;;11.02;100.00
74163;BME280;62515;52.758;5.076;2023-02-18T11:22:56;101722.78;;;10.92;100.00
74163;BME280;62515;52.758;5.076;2023-02-18T11:25:26;101713.81;;;11.23;100.00
74163;BME280;62515;52.758;5.076;2023-02-18T11:27:56;101729.78;;;11.09;100.00
74163;BME280;62515;52.758;5.076;2023-02-18T11:30:26;101710.34;;;11.07;100.00
74163;BME280;62515;52.758;5.076;2023-02-18T11:32:59;101720.81;;;11.10;100.00
74163;BME280;62515;52.758;5.076;2023-02-18T11:35:28;101719.69;;;11.14;100.00
74163;BME280;62515;52.758;5.076;2023-02-18T11:37:58;101719.38;;;11.04;100.00
74163;BME280;62515;52.758;5.076;2023-02-18T11:40:30;101708.13;;;10.99;100.00
74163;BME280;62515;52.758;5.076;2023-02-18T11:43:05;101732.63;;;11.20;100.00
74163;BME280;62515;52.758;5.076;2023-02-18T11:45:34;101724.31;;;11.40;100.00
74163;BME280;62515;52.758;5.076;2023-02-18T11:48:07;101732.41;;;11.52;100.00
74163;BME280;62515;52.758;5.076;2023-02-18T11:50:34;101737.03;;;11.35;100.00
74163;BME280;62515;52.758;5.076;2023-02-18T11:53:26;101725.72;;;11.31;100.00
74163;BME280;62515;52.758;5.076;2023-02-18T11:55:59;101720.75;;;11.25;100.00
74163;BME280;62515;52.758;5.076;2023-02-18T11:58:27;101721.22;;;11.32;100.00
74163;BME280;62515;52.758;5.076;2023-02-18T12:00:59;101714.41;;;11.56;100.00
74163;BME280;62515;52.758;5.076;2023-02-18T12:03:32;101717.22;;;11.83;100.00
74163;BME280;62515;52.758;5.076;2023-02-18T12:06:11;101699.03;;;12.16;100.00
74163;BME280;62515;52.758;5.076;2023-02-18T12:08:47;101706.03;;;12.04;100.00
74163;BME280;62515;52.758;5.076;2023-02-18T12:11:22;101701.44;;;12.47;100.00
74163;BME280;62515;52.758;5.076;2023-02-18T12:13:54;101730.41;;;12.13;100.00
74163;BME280;62515;52.758;5.076;2023-02-18T12:16:29;101709.44;;;12.06;100.00
74163;BME280;62515;52.758;5.076;2023-02-18T12:19:14;101733.28;;;11.67;100.00
74163;BME280;62515;52.758;5.076;2023-02-18T12:21:53;101721.28;;;11.60;100.00
74163;BME280;62515;52.758;5.076;2023-02-18T12:24:35;101716.94;;;11.73;100.00
74163;BME280;62515;52.758;5.076;2023-02-18T12:27:14;101726.03;;;11.97;100.00
74163;BME280;62515;52.758;5.076;2023-02-18T12:30:02;101732.16;;;11.85;100.00
74163;BME280;62515;52.758;5.076;2023-02-18T12:32:42;101726.53;;;11.76;100.00
74163;BME280;62515;52.758;5.076;2023-02-18T12:35:26;101747.56;;;11.66;100.00
74163;BME280;62515;52.758;5.076;2023-02-18T12:38:10;101733.06;;;11.56;100.00
74163;BME280;62515;52.758;5.076;2023-02-18T12:40:53;101733.75;;;11.60;100.00
74163;BME280;62515;52.758;5.076;2023-02-18T12:43:35;101747.47;;;11.53;100.00
74163;BME280;62515;52.758;5.076;2023-02-18T12:49:18;101752.91;;;11.22;100.00
74163;BME280;62515;52.758;5.076;2023-02-18T12:52:01;101757.38;;;11.22;100.00
74163;BME280;62515;52.758;5.076;2023-02-18T12:55:00;101755.50;;;11.24;100.00
74163;BME280;62515;52.758;5.076;2023-02-18T12:57:38;101755.69;;;11.21;100.00
74163;BME280;62515;52.758;5.076;2023-02-18T13:00:36;101758.72;;;11.29;100.00
74163;BME280;62515;52.758;5.076;2023-02-18T13:03:41;101758.75;;;11.43;100.00
74163;BME280;62515;52.758;5.076;2023-02-18T13:06:24;101761.81;;;11.37;100.00
74163;BME280;62515;52.758;5.076;2023-02-18T13:09:03;101762.56;;;11.39;100.00
74163;BME280;62515;52.758;5.076;2023-02-18T13:11:39;101759.63;;;11.43;100.00
74163;BME280;62515;52.758;5.076;2023-02-18T13:14:15;101758.19;;;11.38;100.00